Terminal Aerodrome Forecast
Issued by NWS

Home | Current Version | Previous Version | Graphics & Text | Print | Product List | Glossary On
Versions: 1 2 3 4 5 6 7 8 9 10 11 12 13 14
777
FTUS43 KGRB 021124
TAFMTW
TAF
KMTW 021124Z 0212/0312 36007KT P6SM SKC
     FM021800 05007KT P6SM SCT060
     FM022100 11005KT P6SM SCT070
     FM030200 18003KT P6SM SKC=

USA.gov is the U.S. government's official web portal to all federal, state and local government web resources and services.